Time;durP1;ratioP1;P1;durP2;ratioP2;P2;SDS_P1;SDS_P2;PMS_P1;PMS_P2;Temp;Humidity;BMP_temperature;BMP_pressure;BME280_temperature;BME280_humidity;BME280_pressure;Samples;Min_cycle;Max_cycle;Signal;HPM_P1;HPM_P2
2020/12/15 00:01:05;;;;;;;3.15;2.00;;;9.70;99.90;;;;;;5013306;28;20412;-65
2020/12/15 00:03:31;;;;;;;2.10;1.90;;;9.70;99.90;;;;;;5013180;28;20506;-65
2020/12/15 00:05:58;;;;;;;2.15;1.80;;;9.60;99.90;;;;;;5012952;28;20889;-64
2020/12/15 00:08:24;;;;;;;2.00;1.73;;;9.50;99.90;;;;;;5013329;28;20416;-64
2020/12/15 00:10:50;;;;;;;2.75;1.95;;;9.60;99.90;;;;;;5013128;28;20463;-64
2020/12/15 00:13:17;;;;;;;2.28;1.90;;;9.60;99.90;;;;;;5013306;28;20901;-65
2020/12/15 00:15:43;;;;;;;2.30;1.80;;;9.50;99.90;;;;;;5013703;28;20472;-65
2020/12/15 00:18:09;;;;;;;2.50;2.00;;;9.50;99.90;;;;;;5012957;28;20532;-64
2020/12/15 00:20:39;;;;;;;2.22;2.00;;;9.50;99.90;;;;;;5013274;28;20417;-65
2020/12/15 00:23:06;;;;;;;2.20;2.00;;;9.50;99.90;;;;;;5013240;28;20433;-64
2020/12/15 00:25:32;;;;;;;2.50;1.92;;;9.40;99.90;;;;;;5012967;28;20751;-65
2020/12/15 00:27:58;;;;;;;3.50;2.30;;;9.40;99.90;;;;;;5012787;28;20439;-65
2020/12/15 00:30:25;;;;;;;1.90;1.80;;;9.20;99.90;;;;;;5012702;28;20408;-65
2020/12/15 00:32:51;;;;;;;2.20;2.00;;;9.20;99.90;;;;;;5012764;28;20873;-65
2020/12/15 00:35:17;;;;;;;2.73;1.77;;;9.20;99.90;;;;;;5012681;28;20833;-65
2020/12/15 00:37:44;;;;;;;4.00;2.13;;;9.20;99.90;;;;;;5012671;28;20893;-65
2020/12/15 00:40:11;;;;;;;3.30;2.23;;;9.20;99.90;;;;;;5012605;28;20412;-65
2020/12/15 00:42:37;;;;;;;2.25;2.03;;;9.20;99.90;;;;;;5012572;28;20498;-64
2020/12/15 00:45:03;;;;;;;2.60;2.03;;;9.20;99.90;;;;;;5012561;28;20463;-64
2020/12/15 00:47:29;;;;;;;2.50;1.95;;;9.20;99.90;;;;;;5012625;28;20417;-64
2020/12/15 00:49:55;;;;;;;2.05;1.88;;;9.10;99.90;;;;;;5012369;28;20809;-65
2020/12/15 00:52:24;;;;;;;2.35;2.10;;;9.10;99.90;;;;;;5012286;28;20881;-64
2020/12/15 00:54:50;;;;;;;2.87;2.20;;;9.10;99.90;;;;;;5012192;28;20831;-65
2020/12/15 00:57:18;;;;;;;2.17;2.00;;;9.20;99.90;;;;;;5012531;28;20454;-65
2020/12/15 00:59:44;;;;;;;3.10;2.20;;;9.10;99.90;;;;;;5011943;28;20413;-64
2020/12/15 01:02:10;;;;;;;2.17;1.98;;;9.10;99.90;;;;;;5012592;28;20475;-64
2020/12/15 01:04:37;;;;;;;2.67;1.90;;;9.10;99.90;;;;;;5012328;28;20463;-65
2020/12/15 01:07:03;;;;;;;2.63;2.05;;;9.00;99.90;;;;;;5012543;28;20409;-65
2020/12/15 01:09:29;;;;;;;1.95;1.80;;;8.90;99.90;;;;;;5012496;28;20408;-65
2020/12/15 01:11:56;;;;;;;3.70;2.10;;;9.00;99.90;;;;;;5012691;28;20967;-65
2020/12/15 01:14:23;;;;;;;2.20;2.00;;;9.00;99.90;;;;;;5012114;28;20419;-64
2020/12/15 01:16:49;;;;;;;2.70;2.22;;;9.00;99.90;;;;;;5012134;28;20417;-65
2020/12/15 01:19:15;;;;;;;2.70;2.28;;;8.90;99.90;;;;;;5012279;28;20416;-64
2020/12/15 01:21:41;;;;;;;4.00;2.10;;;8.80;99.90;;;;;;5012140;28;20487;-64
2020/12/15 01:24:07;;;;;;;2.08;1.88;;;8.70;1.00;;;;;;5012187;28;20416;-64
2020/12/15 01:26:33;;;;;;;2.40;2.20;;;8.50;1.00;;;;;;5012197;28;20413;-64
2020/12/15 01:28:59;;;;;;;3.30;2.50;;;8.40;1.00;;;;;;5011580;28;20478;-64
2020/12/15 01:31:28;;;;;;;2.90;2.60;;;8.30;1.00;;;;;;5011807;28;20832;-64
2020/12/15 01:33:55;;;;;;;2.90;2.45;;;8.30;1.00;;;;;;5011718;28;20420;-64
2020/12/15 01:36:28;;;;;;;3.03;2.70;;;8.20;1.00;;;;;;5011646;28;21142;-64
2020/12/15 01:38:55;;;;;;;2.65;2.30;;;8.10;1.00;;;;;;5011806;28;20490;-64
2020/12/15 01:41:21;;;;;;;3.13;2.60;;;8.00;1.00;;;;;;5011211;28;20450;-64
2020/12/15 01:43:55;;;;;;;4.20;2.90;;;7.90;1.00;;;;;;5011943;28;20428;-64
2020/12/15 01:46:21;;;;;;;3.53;2.80;;;7.80;1.00;;;;;;5011159;28;20417;-64
2020/12/15 01:48:48;;;;;;;3.83;2.60;;;7.80;1.00;;;;;;5011720;28;20435;-64
2020/12/15 01:51:15;;;;;;;3.30;2.80;;;7.80;1.00;;;;;;5011585;28;20483;-64
2020/12/15 01:53:43;;;;;;;3.28;2.97;;;7.90;1.00;;;;;;5012407;28;20419;-65
2020/12/15 01:56:10;;;;;;;4.53;2.72;;;7.80;1.00;;;;;;5012872;28;20479;-65
2020/12/15 01:58:37;;;;;;;5.00;2.80;;;7.80;1.00;;;;;;5013357;28;20408;-64
2020/12/15 02:01:03;;;;;;;3.00;2.70;;;7.80;1.00;;;;;;5011044;28;20448;-64
2020/12/15 02:03:29;;;;;;;3.13;2.60;;;7.90;1.00;;;;;;5010944;28;20849;-64
2020/12/15 02:05:56;;;;;;;3.33;3.03;;;7.90;1.00;;;;;;5011326;28;20409;-64
2020/12/15 02:08:22;;;;;;;3.97;3.15;;;8.00;1.00;;;;;;5011363;28;20417;-64
2020/12/15 02:10:48;;;;;;;3.40;2.70;;;7.80;1.00;;;;;;5012606;28;20412;-64
2020/12/15 02:13:15;;;;;;;4.40;3.35;;;7.80;1.00;;;;;;5013290;28;20412;-64
2020/12/15 02:15:41;;;;;;;6.30;3.28;;;7.90;1.00;;;;;;5012439;28;20470;-64
2020/12/15 02:18:07;;;;;;;3.50;3.20;;;7.80;1.00;;;;;;5012061;28;20420;-63
2020/12/15 02:20:37;;;;;;;3.53;3.10;;;7.90;1.00;;;;;;5011280;28;20471;-64
2020/12/15 02:23:04;;;;;;;4.80;3.60;;;7.80;1.00;;;;;;5010758;28;20913;-65
2020/12/15 02:25:30;;;;;;;4.18;3.35;;;7.70;1.00;;;;;;5011138;28;20498;-64
2020/12/15 02:27:56;;;;;;;4.03;3.00;;;7.70;1.00;;;;;;5011166;28;20408;-64
2020/12/15 02:30:22;;;;;;;3.13;2.90;;;7.70;1.00;;;;;;5011145;28;20412;-64
2020/12/15 02:32:48;;;;;;;3.20;3.00;;;7.70;1.00;;;;;;5011274;28;20459;-64
2020/12/15 02:35:15;;;;;;;4.47;3.85;;;7.70;1.00;;;;;;5010918;28;20909;-65
2020/12/15 02:37:41;;;;;;;5.30;3.50;;;7.70;17.70;;;;;;5010869;28;20471;-64
2020/12/15 02:40:08;;;;;;;3.50;3.20;;;7.70;28.70;;;;;;5010944;28;20413;-64
2020/12/15 02:42:34;;;;;;;3.70;3.30;;;7.80;43.10;;;;;;5010757;28;20962;-64
2020/12/15 02:45:00;;;;;;;5.05;3.60;;;7.80;49.70;;;;;;5010828;28;20439;-63
2020/12/15 02:47:27;;;;;;;3.80;3.40;;;7.70;49.80;;;;;;5010872;28;20452;-65
2020/12/15 02:49:53;;;;;;;4.10;3.40;;;7.70;99.90;;;;;;5010836;28;20824;-64
2020/12/15 02:52:20;;;;;;;4.40;4.00;;;7.70;99.90;;;;;;5010546;28;20467;-64
2020/12/15 02:54:46;;;;;;;3.78;3.47;;;7.70;99.90;;;;;;5010961;28;20416;-65
2020/12/15 02:57:13;;;;;;;3.80;3.10;;;7.80;99.90;;;;;;5010948;28;20447;-64
2020/12/15 02:59:39;;;;;;;3.80;3.40;;;7.90;99.90;;;;;;5010846;28;20448;-65
2020/12/15 03:02:06;;;;;;;3.70;3.30;;;7.90;99.90;;;;;;5010579;28;20432;-65
2020/12/15 03:04:32;;;;;;;3.58;3.28;;;8.00;99.90;;;;;;5010407;28;20413;-64
2020/12/15 03:06:58;;;;;;;3.90;3.50;;;8.20;99.90;;;;;;5010500;28;20417;-64
2020/12/15 03:09:24;;;;;;;4.88;3.85;;;8.10;99.90;;;;;;5010562;28;20951;-64
2020/12/15 03:11:50;;;;;;;3.85;3.55;;;8.10;99.90;;;;;;5010720;28;20408;-64
2020/12/15 03:14:17;;;;;;;5.22;4.18;;;8.10;99.90;;;;;;5013733;28;20471;-64
2020/12/15 03:16:43;;;;;;;4.33;3.93;;;8.00;99.90;;;;;;5014336;28;20417;-65
2020/12/15 03:19:09;;;;;;;4.85;4.20;;;8.00;99.90;;;;;;5015182;28;20424;-65
2020/12/15 03:21:36;;;;;;;4.40;4.00;;;8.00;99.90;;;;;;5013728;28;20429;-64
2020/12/15 03:24:03;;;;;;;4.65;4.13;;;8.00;99.90;;;;;;5014275;28;20425;-65
2020/12/15 03:26:29;;;;;;;7.00;4.00;;;8.10;99.90;;;;;;5014044;28;20413;-65
2020/12/15 03:28:55;;;;;;;4.70;4.30;;;8.00;99.90;;;;;;5013882;28;20421;-64
2020/12/15 03:31:22;;;;;;;4.70;4.30;;;8.10;99.90;;;;;;5013931;28;20408;-65
2020/12/15 03:33:48;;;;;;;4.97;4.47;;;8.10;99.90;;;;;;5013641;28;20409;-65
2020/12/15 03:36:15;;;;;;;5.20;4.40;;;8.00;99.90;;;;;;5013989;28;20448;-65
2020/12/15 03:38:42;;;;;;;5.80;4.63;;;8.00;99.90;;;;;;5013924;28;20836;-65
2020/12/15 03:41:08;;;;;;;5.80;4.78;;;8.00;99.90;;;;;;5013450;28;20964;-65
2020/12/15 03:43:34;;;;;;;5.50;5.00;;;8.00;99.90;;;;;;5013843;28;20455;-65
2020/12/15 03:46:00;;;;;;;6.25;5.20;;;8.00;99.90;;;;;;5013548;28;20471;-65
2020/12/15 03:48:27;;;;;;;5.95;4.95;;;8.00;1.00;;;;;;5013766;28;20474;-64
2020/12/15 03:50:54;;;;;;;5.55;5.05;;;8.10;1.00;;;;;;5013733;28;20421;-65
2020/12/15 03:53:20;;;;;;;5.90;5.00;;;8.00;1.00;;;;;;5013449;28;20413;-65
2020/12/15 03:55:48;;;;;;;7.82;4.90;;;8.10;1.00;;;;;;5014016;28;20405;-66
2020/12/15 03:58:14;;;;;;;5.90;4.97;;;8.10;1.00;;;;;;5015097;28;20420;-66
2020/12/15 04:00:40;;;;;;;5.57;5.00;;;8.10;99.90;;;;;;5015269;28;20479;-66
2020/12/15 04:03:06;;;;;;;5.88;5.28;;;7.90;1.00;;;;;;5014563;28;20428;-66
2020/12/15 04:05:33;;;;;;;5.50;4.85;;;7.90;1.00;;;;;;5014734;28;20459;-66
2020/12/15 04:08:00;;;;;;;6.32;5.63;;;7.80;1.00;;;;;;5013974;28;20436;-65
2020/12/15 04:10:26;;;;;;;7.53;5.40;;;7.80;1.00;;;;;;5013091;28;20467;-65
2020/12/15 04:12:52;;;;;;;6.00;4.95;;;7.80;1.00;;;;;;5013268;28;20812;-65
2020/12/15 04:15:18;;;;;;;6.85;6.15;;;7.80;1.00;;;;;;5012837;28;20475;-65
2020/12/15 04:17:44;;;;;;;5.93;5.32;;;7.70;1.00;;;;;;5012757;28;20409;-64
2020/12/15 04:20:11;;;;;;;6.53;5.60;;;7.80;1.00;;;;;;5013256;28;20408;-64
2020/12/15 04:22:38;;;;;;;6.63;5.82;;;7.80;1.00;;;;;;5012770;28;20428;-65
2020/12/15 04:25:05;;;;;;;6.63;5.22;;;7.80;1.00;;;;;;5012142;28;20420;-64
2020/12/15 04:27:31;;;;;;;6.10;5.50;;;7.80;1.00;;;;;;5012695;28;20793;-64
2020/12/15 04:29:57;;;;;;;5.63;5.23;;;7.90;1.00;;;;;;5012802;28;20439;-65
2020/12/15 04:32:24;;;;;;;6.53;5.13;;;7.90;1.00;;;;;;5012659;28;20869;-65
2020/12/15 04:34:50;;;;;;;5.72;5.18;;;7.90;1.00;;;;;;5012450;28;20408;-64
2020/12/15 04:37:16;;;;;;;6.20;5.60;;;8.00;1.00;;;;;;5012870;28;20409;-64
2020/12/15 04:39:43;;;;;;;6.00;5.38;;;8.00;1.00;;;;;;5012578;28;20467;-64
2020/12/15 04:42:11;;;;;;;5.70;5.20;;;8.00;99.90;;;;;;5012832;28;20424;-65
2020/12/15 04:44:38;;;;;;;6.60;6.00;;;8.00;99.90;;;;;;5012430;28;20428;-65
2020/12/15 04:47:12;;;;;;;6.13;5.53;;;7.90;99.90;;;;;;5012488;28;20523;-64
2020/12/15 04:49:48;;;;;;;7.00;6.30;;;7.90;99.90;;;;;;5012549;28;20412;-65
2020/12/15 04:52:22;;;;;;;8.38;6.30;;;7.90;99.90;;;;;;5012330;28;20488;-64
2020/12/15 04:54:50;;;;;;;6.55;5.95;;;8.00;1.00;;;;;;5012167;28;20471;-65
2020/12/15 04:57:19;;;;;;;5.80;5.20;;;8.00;99.90;;;;;;5012201;28;20413;-65
2020/12/15 04:59:48;;;;;;;6.90;6.18;;;8.10;99.90;;;;;;5010611;28;20427;-65
2020/12/15 05:02:14;;;;;;;6.20;5.60;;;8.10;99.90;;;;;;4991930;28;20911;-66
2020/12/15 05:04:41;;;;;;;7.22;6.00;;;8.10;99.90;;;;;;5009661;28;20416;-65
2020/12/15 05:07:08;;;;;;;6.63;6.03;;;8.10;99.90;;;;;;5012287;28;20808;-64
2020/12/15 05:09:35;;;;;;;6.60;5.90;;;8.10;99.90;;;;;;5011943;28;20424;-64
2020/12/15 05:12:03;;;;;;;7.17;6.00;;;8.10;99.90;;;;;;5011862;28;20416;-65
2020/12/15 05:14:29;;;;;;;8.33;6.10;;;8.10;99.90;;;;;;5012036;28;20420;-64
2020/12/15 05:16:55;;;;;;;6.97;5.90;;;8.10;99.90;;;;;;5011747;28;20785;-64
2020/12/15 05:19:21;;;;;;;7.50;6.07;;;8.10;99.90;;;;;;5011845;28;20964;-65
2020/12/15 05:21:54;;;;;;;7.10;6.40;;;8.20;99.90;;;;;;5011639;28;20793;-64
2020/12/15 05:24:27;;;;;;;6.47;5.78;;;8.10;99.90;;;;;;5011374;28;20405;-66
2020/12/15 05:26:54;;;;;;;6.27;5.67;;;8.20;99.90;;;;;;5011718;28;20833;-64
2020/12/15 05:29:22;;;;;;;7.72;5.70;;;8.20;99.90;;;;;;5011952;28;20413;-65
2020/12/15 05:31:48;;;;;;;8.07;6.43;;;8.20;99.90;;;;;;5011782;28;20420;-64
2020/12/15 05:34:23;;;;;;;7.07;6.38;;;8.30;99.90;;;;;;5011575;28;20413;-65
2020/12/15 05:36:51;;;;;;;7.40;6.70;;;8.30;99.90;;;;;;5010584;28;20417;-65
2020/12/15 05:39:17;;;;;;;7.43;6.50;;;8.20;99.90;;;;;;5011590;28;20421;-64
2020/12/15 05:41:44;;;;;;;7.30;6.18;;;8.20;99.90;;;;;;5011697;28;20412;-65
2020/12/15 05:44:12;;;;;;;6.82;6.13;;;8.30;99.90;;;;;;5011634;28;20424;-65
2020/12/15 05:46:46;;;;;;;7.22;6.53;;;8.30;99.90;;;;;;5011296;28;20421;-64
2020/12/15 05:49:13;;;;;;;7.10;6.18;;;8.30;99.90;;;;;;5011330;28;20499;-65
2020/12/15 05:51:41;;;;;;;6.63;5.93;;;8.40;99.90;;;;;;5011582;28;20789;-65
2020/12/15 05:54:12;;;;;;;6.72;6.03;;;8.30;99.90;;;;;;5011486;28;20496;-65
2020/12/15 05:56:39;;;;;;;6.43;5.73;;;8.30;99.90;;;;;;5011175;28;20420;-65
2020/12/15 05:59:18;;;;;;;7.35;6.65;;;8.40;99.90;;;;;;5011400;28;20449;-65
2020/12/15 06:01:46;;;;;;;6.90;6.20;;;8.30;99.90;;;;;;5011002;28;20474;-65
2020/12/15 06:04:13;;;;;;;6.70;5.90;;;8.40;99.90;;;;;;5011171;28;20452;-65
2020/12/15 06:06:41;;;;;;;7.50;6.18;;;8.30;99.90;;;;;;5011132;28;21104;-65
2020/12/15 06:09:09;;;;;;;5.78;5.28;;;8.30;99.90;;;;;;5011071;28;20413;-65
2020/12/15 06:11:38;;;;;;;6.70;6.00;;;8.30;99.90;;;;;;5011255;28;20496;-65
2020/12/15 06:14:04;;;;;;;6.40;5.80;;;8.40;99.90;;;;;;5011040;28;20928;-65
2020/12/15 06:16:30;;;;;;;6.97;6.28;;;8.40;99.90;;;;;;5011114;28;20466;-65
2020/12/15 06:18:57;;;;;;;6.65;5.70;;;8.40;99.90;;;;;;5011651;28;20417;-65
2020/12/15 06:21:24;;;;;;;6.47;5.88;;;8.50;99.90;;;;;;5012501;28;20424;-65
2020/12/15 06:23:58;;;;;;;7.10;6.20;;;8.40;99.90;;;;;;5010825;28;20455;-64
2020/12/15 06:26:25;;;;;;;6.85;6.18;;;8.40;99.90;;;;;;5010554;28;20412;-65
2020/12/15 06:29:00;;;;;;;6.43;5.80;;;8.40;99.90;;;;;;4994323;28;20422;-64
2020/12/15 06:31:27;;;;;;;7.47;6.35;;;8.50;99.90;;;;;;4991489;28;20418;-65
2020/12/15 06:33:58;;;;;;;6.82;6.13;;;8.50;99.90;;;;;;4991265;28;20414;-64
2020/12/15 06:36:29;;;;;;;6.93;6.22;;;8.50;99.90;;;;;;4990917;28;20422;-64
2020/12/15 06:38:55;;;;;;;8.07;6.65;;;8.50;99.90;;;;;;4990980;28;20437;-65
2020/12/15 06:41:23;;;;;;;6.97;6.28;;;8.50;99.90;;;;;;4991103;28;20414;-65
2020/12/15 06:43:50;;;;;;;8.85;6.55;;;8.50;99.90;;;;;;4991150;28;20488;-64
2020/12/15 06:46:25;;;;;;;7.50;6.80;;;8.50;99.90;;;;;;4991192;28;20960;-65
2020/12/15 06:48:53;;;;;;;7.20;6.50;;;8.60;99.90;;;;;;4993936;28;20418;-65
2020/12/15 06:51:28;;;;;;;7.43;6.72;;;8.60;99.90;;;;;;4995200;28;20429;-65
2020/12/15 06:53:58;;;;;;;8.45;6.57;;;8.50;1.00;;;;;;4995192;28;20414;-65
2020/12/15 06:56:28;;;;;;;7.40;6.70;;;8.60;1.00;;;;;;4996643;28;20471;-65
2020/12/15 06:59:06;;;;;;;7.82;7.03;;;8.60;1.00;;;;;;4997147;28;20484;-65
2020/12/15 07:01:33;;;;;;;7.65;6.95;;;8.60;1.00;;;;;;4996874;28;20892;-65
2020/12/15 07:04:01;;;;;;;8.10;7.00;;;8.70;1.00;;;;;;4994847;28;20434;-65
2020/12/15 07:06:28;;;;;;;7.60;6.80;;;8.60;1.00;;;;;;4994275;28;20418;-65
2020/12/15 07:09:03;;;;;;;7.97;7.07;;;8.70;1.00;;;;;;4995462;28;20760;-65
2020/12/15 07:11:29;;;;;;;8.73;7.82;;;8.70;1.00;;;;;;4997372;28;20892;-65
2020/12/15 07:13:57;;;;;;;8.27;7.47;;;8.70;1.00;;;;;;4998478;28;20497;-65
2020/12/15 07:16:25;;;;;;;8.00;7.20;;;8.70;1.00;;;;;;4997944;28;20414;-65
2020/12/15 07:18:51;;;;;;;8.25;7.47;;;8.80;1.00;;;;;;4995921;28;20782;-65
2020/12/15 07:21:18;;;;;;;8.20;7.40;;;8.80;1.00;;;;;;4994710;28;20422;-65
2020/12/15 07:23:46;;;;;;;8.27;7.47;;;8.70;1.00;;;;;;4994315;28;20470;-65
2020/12/15 07:26:14;;;;;;;8.90;7.70;;;8.80;1.00;;;;;;4994144;28;20516;-65
2020/12/15 07:28:42;;;;;;;8.40;7.60;;;8.80;1.00;;;;;;4994373;28;20429;-65
2020/12/15 07:31:08;;;;;;;8.00;7.20;;;8.80;1.00;;;;;;4994300;28;20418;-65
2020/12/15 07:33:35;;;;;;;9.13;8.23;;;8.70;1.00;;;;;;4994129;28;20433;-65
2020/12/15 07:36:10;;;;;;;9.32;8.45;;;8.70;1.00;;;;;;4993890;28;20907;-65
2020/12/15 07:38:38;;;;;;;10.02;7.88;;;8.70;1.00;;;;;;4994515;28;20818;-65
2020/12/15 07:41:13;;;;;;;9.73;8.73;;;8.70;3.30;;;;;;4994329;28;20419;-65
2020/12/15 07:43:41;;;;;;;10.02;9.02;;;8.70;90.00;;;;;;4994066;28;20820;-65
2020/12/15 07:46:16;;;;;;;9.02;8.13;;;8.70;96.20;;;;;;4993430;28;20480;-65
2020/12/15 07:48:42;;;;;;;9.00;8.10;;;8.70;99.90;;;;;;4994514;28;20414;-65
2020/12/15 07:51:09;;;;;;;8.93;8.02;;;8.70;99.90;;;;;;4994625;28;20768;-65
2020/12/15 07:53:35;;;;;;;8.38;7.47;;;8.70;99.90;;;;;;4995074;28;20767;-65
2020/12/15 07:56:03;;;;;;;9.23;8.27;;;8.80;99.90;;;;;;4995343;28;20775;-65
2020/12/15 07:58:31;;;;;;;9.70;8.70;;;8.80;99.90;;;;;;4993753;28;20418;-65
2020/12/15 08:00:58;;;;;;;9.10;8.20;;;8.80;99.90;;;;;;4992914;28;20417;-65
2020/12/15 08:03:24;;;;;;;9.43;8.40;;;8.70;99.90;;;;;;4993666;28;20426;-64
2020/12/15 08:05:50;;;;;;;9.27;8.27;;;8.80;99.90;;;;;;4993266;28;20414;-63
2020/12/15 08:08:18;;;;;;;10.05;9.05;;;8.70;99.90;;;;;;4993513;28;20803;-64
2020/12/15 08:10:44;;;;;;;9.82;8.20;;;8.80;99.90;;;;;;4993430;28;20414;-64
2020/12/15 08:13:11;;;;;;;9.60;8.25;;;8.70;99.90;;;;;;4993234;28;20414;-64
2020/12/15 08:15:39;;;;;;;8.48;7.57;;;8.80;99.90;;;;;;4993247;28;20422;-64
2020/12/15 08:18:08;;;;;;;8.80;7.50;;;8.80;99.90;;;;;;4993354;28;20418;-64
2020/12/15 08:20:35;;;;;;;8.20;7.40;;;8.80;99.90;;;;;;4993450;28;20910;-63
2020/12/15 08:23:07;;;;;;;7.80;7.00;;;8.80;99.90;;;;;;4993270;28;20492;-64
2020/12/15 08:25:35;;;;;;;8.25;7.35;;;8.80;99.90;;;;;;4992748;28;20424;-64
2020/12/15 08:28:08;;;;;;;7.85;6.78;;;8.80;99.90;;;;;;4993496;28;20426;-64
2020/12/15 08:30:34;;;;;;;8.45;7.60;;;8.70;99.90;;;;;;4992885;28;20914;-66
2020/12/15 08:33:01;;;;;;;7.63;6.85;;;8.80;99.90;;;;;;4993134;28;20411;-65
2020/12/15 08:35:28;;;;;;;7.25;6.65;;;8.70;99.90;;;;;;4992747;28;20418;-64
2020/12/15 08:37:57;;;;;;;8.73;7.40;;;8.80;1.00;;;;;;4993063;28;20474;-64
2020/12/15 08:40:23;;;;;;;7.93;7.13;;;8.80;99.90;;;;;;4992854;28;20426;-64
2020/12/15 08:42:55;;;;;;;7.60;6.87;;;8.60;99.90;;;;;;4991935;28;21119;-64
2020/12/15 08:45:25;;;;;;;7.90;7.10;;;8.70;1.00;;;;;;4992892;28;20772;-64
2020/12/15 08:47:53;;;;;;;7.78;6.88;;;8.70;1.00;;;;;;4993020;28;20426;-64
2020/12/15 08:50:20;;;;;;;8.18;6.88;;;8.70;1.00;;;;;;4992731;28;20426;-64
2020/12/15 08:52:46;;;;;;;7.88;7.07;;;8.80;1.00;;;;;;4992493;28;20452;-64
2020/12/15 08:55:13;;;;;;;7.55;6.63;;;8.70;1.00;;;;;;4992528;28;20786;-64
2020/12/15 08:57:39;;;;;;;7.00;6.40;;;8.80;1.00;;;;;;4992769;28;20415;-64
2020/12/15 09:00:13;;;;;;;7.30;6.60;;;8.80;1.00;;;;;;4992726;28;20422;-64
2020/12/15 09:02:39;;;;;;;7.22;6.53;;;8.90;1.00;;;;;;4992663;28;20429;-64
2020/12/15 09:05:07;;;;;;;6.70;6.10;;;8.90;1.00;;;;;;4991978;28;20419;-64
2020/12/15 09:07:34;;;;;;;5.80;5.20;;;8.90;1.00;;;;;;4992900;28;20785;-64
2020/12/15 09:10:11;;;;;;;6.43;5.82;;;9.00;99.90;;;;;;4992480;28;20768;-64
2020/12/15 09:12:38;;;;;;;6.65;6.05;;;8.90;99.90;;;;;;4992666;28;20906;-65
2020/12/15 09:15:04;;;;;;;5.70;5.20;;;8.90;99.90;;;;;;4992767;28;20426;-65
2020/12/15 09:17:31;;;;;;;7.25;6.10;;;8.90;99.90;;;;;;4992914;28;20427;-65
2020/12/15 09:19:57;;;;;;;6.13;5.53;;;9.00;99.90;;;;;;4992271;28;20429;-65
2020/12/15 09:22:23;;;;;;;6.28;5.68;;;9.00;99.90;;;;;;4992399;28;20449;-64
2020/12/15 09:24:50;;;;;;;7.78;5.57;;;9.00;99.90;;;;;;4992765;28;20489;-65
2020/12/15 09:27:20;;;;;;;6.45;5.85;;;9.00;99.90;;;;;;4992174;28;20748;-65
2020/12/15 09:29:47;;;;;;;6.55;5.80;;;8.80;99.90;;;;;;4992133;28;20411;-65
2020/12/15 09:32:13;;;;;;;5.50;5.00;;;8.90;1.00;;;;;;4992098;28;20414;-65
2020/12/15 09:34:39;;;;;;;6.30;5.70;;;8.90;1.00;;;;;;4992049;28;20429;-65
2020/12/15 09:37:05;;;;;;;6.35;5.75;;;9.00;1.00;;;;;;4991779;28;20425;-65
2020/12/15 09:39:32;;;;;;;5.83;5.23;;;9.00;1.00;;;;;;4992241;28;20494;-65
2020/12/15 09:42:00;;;;;;;5.60;5.10;;;9.00;99.90;;;;;;4992294;28;20493;-65
2020/12/15 09:44:26;;;;;;;5.85;5.35;;;9.10;99.90;;;;;;4992027;28;20868;-65
2020/12/15 09:46:52;;;;;;;6.97;6.07;;;9.10;99.90;;;;;;4991414;28;20492;-65
2020/12/15 09:49:18;;;;;;;6.35;5.75;;;9.20;1.00;;;;;;4992386;28;20422;-65
2020/12/15 09:51:44;;;;;;;7.80;6.65;;;9.20;99.90;;;;;;4992083;28;20429;-65
2020/12/15 09:54:11;;;;;;;5.93;5.43;;;9.20;99.90;;;;;;4991861;28;20421;-65
2020/12/15 09:56:42;;;;;;;5.88;5.30;;;9.30;99.90;;;;;;4991561;28;20415;-65
2020/12/15 09:59:09;;;;;;;5.45;4.90;;;9.30;99.90;;;;;;4991786;28;20434;-65
2020/12/15 10:01:35;;;;;;;5.80;5.30;;;9.30;99.90;;;;;;4991694;28;20529;-65
2020/12/15 10:04:02;;;;;;;6.80;6.10;;;9.30;99.90;;;;;;4991700;28;20915;-66
2020/12/15 10:06:28;;;;;;;5.90;5.30;;;9.30;99.90;;;;;;4991635;28;20457;-65
2020/12/15 10:08:54;;;;;;;6.13;5.53;;;9.30;99.90;;;;;;4992143;28;20457;-65
2020/12/15 10:11:21;;;;;;;6.20;5.60;;;9.40;99.90;;;;;;4992398;28;20426;-65
2020/12/15 10:13:47;;;;;;;5.97;5.38;;;9.30;99.90;;;;;;4991806;28;20552;-65
2020/12/15 10:16:14;;;;;;;5.70;5.20;;;9.40;99.90;;;;;;4991159;28;20418;-65
2020/12/15 10:18:40;;;;;;;5.90;5.30;;;9.40;99.90;;;;;;4992006;28;20422;-65
2020/12/15 10:21:06;;;;;;;5.93;5.32;;;9.40;99.90;;;;;;4992435;28;20422;-64
2020/12/15 10:23:34;;;;;;;5.95;5.40;;;9.40;99.90;;;;;;4993862;28;20426;-64
2020/12/15 10:26:00;;;;;;;5.50;5.00;;;9.40;99.90;;;;;;4995891;28;20481;-65
2020/12/15 10:28:27;;;;;;;5.50;4.90;;;9.50;99.90;;;;;;4995747;28;20418;-65
2020/12/15 10:30:53;;;;;;;6.20;5.60;;;9.40;99.90;;;;;;4995824;28;20429;-65
2020/12/15 10:33:20;;;;;;;6.10;5.50;;;9.50;99.90;;;;;;4995940;28;20415;-65
2020/12/15 10:35:46;;;;;;;5.63;5.13;;;9.50;99.90;;;;;;4995841;28;20414;-65
2020/12/15 10:38:12;;;;;;;5.75;4.78;;;9.40;99.90;;;;;;4996432;28;20513;-65
2020/12/15 10:40:38;;;;;;;5.13;4.72;;;9.50;99.90;;;;;;4995929;28;20426;-65
2020/12/15 10:43:04;;;;;;;4.93;4.53;;;9.60;99.90;;;;;;4995666;28;20803;-65
2020/12/15 10:45:30;;;;;;;5.18;4.68;;;9.60;99.90;;;;;;4994889;28;20418;-65
2020/12/15 10:47:56;;;;;;;6.05;5.45;;;9.60;99.90;;;;;;4995323;28;20484;-65
2020/12/15 10:50:23;;;;;;;5.85;5.35;;;9.60;99.90;;;;;;4995097;28;20417;-65
2020/12/15 10:52:49;;;;;;;5.10;4.70;;;9.60;99.90;;;;;;4995145;28;20788;-65
2020/12/15 10:55:15;;;;;;;5.13;4.43;;;9.70;99.90;;;;;;4994755;28;20419;-65
2020/12/15 10:57:41;;;;;;;4.80;4.40;;;9.70;99.90;;;;;;4995067;28;20953;-65
2020/12/15 11:00:08;;;;;;;6.18;5.57;;;9.70;99.90;;;;;;4995440;28;20545;-65
2020/12/15 11:02:34;;;;;;;5.50;5.00;;;9.60;99.90;;;;;;4995170;28;20436;-65
2020/12/15 11:05:00;;;;;;;5.47;4.90;;;9.60;99.90;;;;;;4995110;28;20418;-65
2020/12/15 11:07:27;;;;;;;4.72;4.32;;;9.60;99.90;;;;;;4994742;28;20423;-65
2020/12/15 11:09:53;;;;;;;5.50;5.00;;;9.70;99.90;;;;;;4994936;28;20473;-65
2020/12/15 11:12:20;;;;;;;4.60;4.20;;;9.80;99.90;;;;;;4994608;28;20418;-65
2020/12/15 11:14:46;;;;;;;5.97;5.32;;;9.70;99.90;;;;;;4994807;28;20484;-65
2020/12/15 11:17:12;;;;;;;5.20;4.80;;;9.80;99.90;;;;;;4994679;28;20449;-66
2020/12/15 11:19:38;;;;;;;5.80;5.20;;;9.80;99.90;;;;;;4994810;28;20425;-66
2020/12/15 11:22:04;;;;;;;5.60;4.90;;;9.90;99.90;;;;;;4994815;28;20414;-66
2020/12/15 11:24:31;;;;;;;5.40;4.90;;;9.90;99.90;;;;;;4994295;28;20850;-66
2020/12/15 11:26:57;;;;;;;5.28;4.78;;;10.00;99.90;;;;;;4994557;28;20410;-66
2020/12/15 11:29:23;;;;;;;5.88;5.38;;;9.90;99.90;;;;;;4995949;28;20430;-65
2020/12/15 11:31:50;;;;;;;4.75;4.25;;;10.00;99.90;;;;;;4995902;28;20414;-66
2020/12/15 11:34:16;;;;;;;4.90;4.45;;;10.00;99.90;;;;;;4995488;28;20464;-66
2020/12/15 11:36:42;;;;;;;4.80;4.30;;;10.00;99.90;;;;;;4995623;28;20425;-65
2020/12/15 11:39:08;;;;;;;5.20;4.80;;;10.00;99.90;;;;;;4995701;28;20426;-66
2020/12/15 11:41:35;;;;;;;4.93;4.50;;;9.90;99.90;;;;;;4996090;28;20438;-65
2020/12/15 11:44:02;;;;;;;5.85;5.35;;;10.00;99.90;;;;;;4995409;28;20499;-65
2020/12/15 11:46:28;;;;;;;5.65;5.15;;;10.00;99.90;;;;;;4995152;28;20418;-65
2020/12/15 11:48:54;;;;;;;6.17;4.83;;;10.00;99.90;;;;;;4996221;28;20415;-66
2020/12/15 11:51:21;;;;;;;4.63;4.22;;;10.00;99.90;;;;;;4994764;28;20907;-65
2020/12/15 11:53:47;;;;;;;5.70;4.90;;;10.00;99.90;;;;;;4996704;28;20418;-65
2020/12/15 11:56:16;;;;;;;5.10;4.70;;;9.90;99.90;;;;;;4995059;28;20419;-66
2020/12/15 11:58:43;;;;;;;5.25;4.75;;;9.90;99.90;;;;;;4995530;28;20419;-65
2020/12/15 12:01:09;;;;;;;5.60;5.10;;;9.90;99.90;;;;;;4994582;28;20425;-65
2020/12/15 12:03:35;;;;;;;5.80;5.30;;;9.90;99.90;;;;;;4994147;28;20430;-66
2020/12/15 12:06:01;;;;;;;5.80;5.20;;;9.90;99.90;;;;;;4994412;28;20441;-65
2020/12/15 12:08:28;;;;;;;5.60;5.10;;;9.90;99.90;;;;;;4994765;28;20426;-65
2020/12/15 12:10:54;;;;;;;5.60;5.10;;;9.80;99.90;;;;;;4998468;28;20501;-65
2020/12/15 12:13:20;;;;;;;5.93;5.43;;;9.80;99.90;;;;;;4999526;28;20764;-66
2020/12/15 12:15:47;;;;;;;5.70;5.10;;;9.90;99.90;;;;;;5001869;28;20897;-66
2020/12/15 12:18:13;;;;;;;5.90;5.30;;;9.90;99.90;;;;;;4998835;28;20415;-65
2020/12/15 12:20:39;;;;;;;6.10;5.60;;;9.90;99.90;;;;;;4993521;28;20422;-66
2020/12/15 12:23:06;;;;;;;5.60;5.10;;;9.80;99.90;;;;;;4993709;28;20776;-65
2020/12/15 12:25:32;;;;;;;5.80;5.20;;;9.80;99.90;;;;;;4993114;28;20510;-66
2020/12/15 12:27:58;;;;;;;6.10;5.50;;;9.70;99.90;;;;;;4993702;28;20421;-66
2020/12/15 12:30:24;;;;;;;6.07;5.47;;;9.70;99.90;;;;;;4993414;28;20835;-65
2020/12/15 12:32:51;;;;;;;6.93;6.10;;;9.70;99.90;;;;;;4993399;28;20469;-66
2020/12/15 12:35:17;;;;;;;6.20;5.60;;;9.80;99.90;;;;;;4992964;28;20941;-65
2020/12/15 12:37:44;;;;;;;6.45;5.80;;;9.80;99.90;;;;;;4992772;28;20932;-65
2020/12/15 12:40:11;;;;;;;7.93;6.35;;;9.80;99.90;;;;;;4993308;28;20767;-66
2020/12/15 12:42:38;;;;;;;6.97;6.30;;;9.70;99.90;;;;;;4993070;28;20429;-66
2020/12/15 12:45:04;;;;;;;7.47;6.40;;;9.70;99.90;;;;;;4993119;28;20415;-66
2020/12/15 12:47:30;;;;;;;6.63;6.03;;;9.70;99.90;;;;;;4992537;28;20427;-65
2020/12/15 12:49:57;;;;;;;8.40;6.57;;;9.80;99.90;;;;;;4993135;28;20473;-65
2020/12/15 12:52:23;;;;;;;7.30;5.95;;;9.80;99.90;;;;;;4994916;28;20414;-66
2020/12/15 12:54:49;;;;;;;7.43;6.57;;;9.80;99.90;;;;;;4993355;28;20415;-66
2020/12/15 12:57:15;;;;;;;7.30;6.50;;;9.80;99.90;;;;;;4992847;28;20464;-65
2020/12/15 12:59:42;;;;;;;7.72;7.03;;;9.80;99.90;;;;;;4992784;28;20430;-66